sensor_id;sensor_type;location;lat;lon;timestamp;pressure;altitude;pressure_sealevel;temperature;humidity
20077;BME280;12348;42.710;23.378;2022-12-20T00:01:41;96999.75;;;-0.77;100.00
20077;BME280;12348;42.710;23.378;2022-12-20T00:04:08;97002.59;;;-0.78;100.00
20077;BME280;12348;42.710;23.378;2022-12-20T00:06:37;97001.44;;;-0.84;100.00
20077;BME280;12348;42.710;23.378;2022-12-20T00:09:06;97002.44;;;-0.85;100.00
20077;BME280;12348;42.710;23.378;2022-12-20T00:11:34;97009.72;;;-0.87;100.00
20077;BME280;12348;42.710;23.378;2022-12-20T00:14:00;97014.53;;;-0.90;100.00
20077;BME280;12348;42.710;23.378;2022-12-20T00:16:28;97010.63;;;-0.09;100.00
20077;BME280;12348;42.710;23.378;2022-12-20T00:18:58;97016.66;;;-0.46;100.00
20077;BME280;12348;42.710;23.378;2022-12-20T00:21:26;97018.41;;;-0.70;100.00
20077;BME280;12348;42.710;23.378;2022-12-20T00:23:56;97025.91;;;-0.82;100.00
20077;BME280;12348;42.710;23.378;2022-12-20T00:26:26;97024.75;;;-0.87;100.00
20077;BME280;12348;42.710;23.378;2022-12-20T00:28:53;97016.03;;;-0.96;100.00
20077;BME280;12348;42.710;23.378;2022-12-20T00:31:23;97025.63;;;-0.95;100.00
20077;BME280;12348;42.710;23.378;2022-12-20T00:33:52;97014.56;;;-0.99;100.00
20077;BME280;12348;42.710;23.378;2022-12-20T00:36:19;97023.28;;;-0.90;100.00
20077;BME280;12348;42.710;23.378;2022-12-20T00:38:48;97015.66;;;-0.85;100.00
20077;BME280;12348;42.710;23.378;2022-12-20T00:41:17;97010.94;;;-0.58;100.00
20077;BME280;12348;42.710;23.378;2022-12-20T00:43:45;97012.09;;;-0.61;100.00
20077;BME280;12348;42.710;23.378;2022-12-20T00:46:14;97010.78;;;-0.65;100.00
20077;BME280;12348;42.710;23.378;2022-12-20T00:48:41;97010.44;;;-0.62;100.00
20077;BME280;12348;42.710;23.378;2022-12-20T00:51:10;97020.34;;;-0.56;100.00
20077;BME280;12348;42.710;23.378;2022-12-20T00:53:37;97007.63;;;-0.60;100.00
20077;BME280;12348;42.710;23.378;2022-12-20T00:56:05;97010.94;;;-0.58;100.00
20077;BME280;12348;42.710;23.378;2022-12-20T00:58:32;97007.47;;;-0.59;100.00
20077;BME280;12348;42.710;23.378;2022-12-20T01:01:01;97017.53;;;-0.54;100.00
20077;BME280;12348;42.710;23.378;2022-12-20T01:03:28;97009.63;;;-0.62;100.00
20077;BME280;12348;42.710;23.378;2022-12-20T01:05:57;97010.63;;;-0.63;100.00
20077;BME280;12348;42.710;23.378;2022-12-20T01:08:26;97011.25;;;-0.61;100.00
20077;BME280;12348;42.710;23.378;2022-12-20T01:10:58;97009.28;;;-0.59;100.00
20077;BME280;12348;42.710;23.378;2022-12-20T01:13:25;97005.50;;;-0.65;100.00
20077;BME280;12348;42.710;23.378;2022-12-20T01:15:52;96997.75;;;-0.66;100.00
20077;BME280;12348;42.710;23.378;2022-12-20T01:18:20;97004.38;;;-0.70;100.00
20077;BME280;12348;42.710;23.378;2022-12-20T01:20:48;97002.56;;;-0.70;100.00
20077;BME280;12348;42.710;23.378;2022-12-20T01:23:15;96995.16;;;-0.75;100.00
20077;BME280;12348;42.710;23.378;2022-12-20T01:25:42;96988.53;;;-0.79;100.00
20077;BME280;12348;42.710;23.378;2022-12-20T01:28:10;96985.75;;;-0.85;100.00
20077;BME280;12348;42.710;23.378;2022-12-20T01:30:39;96983.94;;;-0.85;100.00
20077;BME280;12348;42.710;23.378;2022-12-20T01:33:05;96978.50;;;-0.91;100.00
20077;BME280;12348;42.710;23.378;2022-12-20T01:35:34;96987.97;;;-0.97;100.00
20077;BME280;12348;42.710;23.378;2022-12-20T01:38:00;96978.69;;;-0.93;100.00
20077;BME280;12348;42.710;23.378;2022-12-20T01:40:27;96983.75;;;-0.83;100.00
20077;BME280;12348;42.710;23.378;2022-12-20T01:42:54;96980.13;;;-0.51;100.00
20077;BME280;12348;42.710;23.378;2022-12-20T01:45:26;96973.28;;;-0.68;100.00
20077;BME280;12348;42.710;23.378;2022-12-20T01:47:54;96963.75;;;-0.78;100.00
20077;BME280;12348;42.710;23.378;2022-12-20T01:50:22;96965.72;;;-0.80;100.00
20077;BME280;12348;42.710;23.378;2022-12-20T01:52:51;96971.34;;;-0.83;100.00
20077;BME280;12348;42.710;23.378;2022-12-20T01:55:22;96956.69;;;-0.85;100.00
20077;BME280;12348;42.710;23.378;2022-12-20T01:57:51;96964.81;;;-0.95;100.00
20077;BME280;12348;42.710;23.378;2022-12-20T02:00:20;96952.94;;;-0.99;100.00
20077;BME280;12348;42.710;23.378;2022-12-20T02:02:48;96958.56;;;-1.02;100.00
20077;BME280;12348;42.710;23.378;2022-12-20T02:05:17;96956.91;;;-1.03;100.00
20077;BME280;12348;42.710;23.378;2022-12-20T02:07:47;96948.81;;;-1.02;100.00
20077;BME280;12348;42.710;23.378;2022-12-20T02:10:16;96950.81;;;-1.04;100.00
20077;BME280;12348;42.710;23.378;2022-12-20T02:12:45;96947.34;;;-1.04;100.00
20077;BME280;12348;42.710;23.378;2022-12-20T02:15:32;96949.31;;;-1.06;100.00
20077;BME280;12348;42.710;23.378;2022-12-20T02:18:15;96953.97;;;-1.08;100.00
20077;BME280;12348;42.710;23.378;2022-12-20T02:20:53;96958.91;;;-1.05;100.00
20077;BME280;12348;42.710;23.378;2022-12-20T02:27:05;96952.22;;;-0.85;100.00
20077;BME280;12348;42.710;23.378;2022-12-20T02:29:58;96949.34;;;-0.44;100.00
20077;BME280;12348;42.710;23.378;2022-12-20T02:32:31;96957.06;;;-0.65;100.00
20077;BME280;12348;42.710;23.378;2022-12-20T02:35:02;96959.81;;;-0.82;100.00
20077;BME280;12348;42.710;23.378;2022-12-20T02:37:30;96960.19;;;-0.93;100.00
20077;BME280;12348;42.710;23.378;2022-12-20T02:39:56;96953.59;;;-1.05;100.00
20077;BME280;12348;42.710;23.378;2022-12-20T02:42:24;96950.00;;;-1.04;100.00
20077;BME280;12348;42.710;23.378;2022-12-20T02:44:57;96945.72;;;-1.13;100.00
20077;BME280;12348;42.710;23.378;2022-12-20T02:47:46;96947.72;;;-1.24;100.00
20077;BME280;12348;42.710;23.378;2022-12-20T02:50:17;96944.59;;;-1.27;100.00
20077;BME280;12348;42.710;23.378;2022-12-20T02:52:46;96938.72;;;-1.45;100.00
20077;BME280;12348;42.710;23.378;2022-12-20T02:55:13;96949.75;;;-1.42;100.00
20077;BME280;12348;42.710;23.378;2022-12-20T02:57:45;96943.16;;;-1.46;100.00
20077;BME280;12348;42.710;23.378;2022-12-20T03:00:17;96938.84;;;-1.39;100.00
20077;BME280;12348;42.710;23.378;2022-12-20T03:02:46;96935.72;;;-1.34;100.00
20077;BME280;12348;42.710;23.378;2022-12-20T03:05:44;96933.28;;;-1.44;100.00
20077;BME280;12348;42.710;23.378;2022-12-20T03:08:12;96936.44;;;-1.57;100.00
20077;BME280;12348;42.710;23.378;2022-12-20T03:10:39;96930.69;;;-1.60;100.00
20077;BME280;12348;42.710;23.378;2022-12-20T03:13:06;96929.69;;;-1.67;100.00
20077;BME280;12348;42.710;23.378;2022-12-20T03:15:34;96931.03;;;-1.80;100.00
20077;BME280;12348;42.710;23.378;2022-12-20T03:18:01;96932.69;;;-1.87;100.00
20077;BME280;12348;42.710;23.378;2022-12-20T03:20:28;96939.31;;;-1.83;100.00
20077;BME280;12348;42.710;23.378;2022-12-20T03:22:55;96924.75;;;-1.87;100.00
20077;BME280;12348;42.710;23.378;2022-12-20T03:25:21;96935.31;;;-1.71;100.00
20077;BME280;12348;42.710;23.378;2022-12-20T03:27:48;96928.50;;;-1.49;100.00
20077;BME280;12348;42.710;23.378;2022-12-20T03:30:15;96929.53;;;-1.74;100.00
20077;BME280;12348;42.710;23.378;2022-12-20T03:32:43;96920.47;;;-1.88;100.00
20077;BME280;12348;42.710;23.378;2022-12-20T03:35:10;96929.22;;;-1.96;100.00
20077;BME280;12348;42.710;23.378;2022-12-20T03:37:37;96929.25;;;-2.04;100.00
20077;BME280;12348;42.710;23.378;2022-12-20T03:40:05;96928.06;;;-2.09;100.00
20077;BME280;12348;42.710;23.378;2022-12-20T03:42:32;96925.28;;;-2.16;100.00
20077;BME280;12348;42.710;23.378;2022-12-20T03:44:59;96921.50;;;-2.22;100.00
20077;BME280;12348;42.710;23.378;2022-12-20T03:47:25;96924.31;;;-2.23;100.00
20077;BME280;12348;42.710;23.378;2022-12-20T03:49:54;96912.94;;;-2.24;100.00
20077;BME280;12348;42.710;23.378;2022-12-20T03:52:20;96910.94;;;-2.22;100.00
20077;BME280;12348;42.710;23.378;2022-12-20T03:54:47;96918.53;;;-2.10;100.00
20077;BME280;12348;42.710;23.378;2022-12-20T03:57:14;96911.28;;;-2.16;100.00
20077;BME280;12348;42.710;23.378;2022-12-20T03:59:41;96913.44;;;-2.20;100.00
20077;BME280;12348;42.710;23.378;2022-12-20T04:02:08;96918.03;;;-2.22;100.00
20077;BME280;12348;42.710;23.378;2022-12-20T04:04:35;96919.53;;;-2.28;100.00
20077;BME280;12348;42.710;23.378;2022-12-20T04:07:03;96924.13;;;-2.30;100.00
20077;BME280;12348;42.710;23.378;2022-12-20T04:09:30;96917.53;;;-2.26;100.00
20077;BME280;12348;42.710;23.378;2022-12-20T04:11:57;96919.84;;;-2.31;100.00
20077;BME280;12348;42.710;23.378;2022-12-20T04:14:24;96907.97;;;-2.43;100.00
20077;BME280;12348;42.710;23.378;2022-12-20T04:16:51;96911.09;;;-2.48;100.00
20077;BME280;12348;42.710;23.378;2022-12-20T04:19:18;96908.13;;;-2.53;100.00
20077;BME280;12348;42.710;23.378;2022-12-20T04:21:45;96905.63;;;-2.54;100.00
20077;BME280;12348;42.710;23.378;2022-12-20T04:24:13;96902.84;;;-2.53;100.00
20077;BME280;12348;42.710;23.378;2022-12-20T04:26:40;96905.31;;;-2.51;100.00
20077;BME280;12348;42.710;23.378;2022-12-20T04:29:06;96897.72;;;-2.54;100.00
20077;BME280;12348;42.710;23.378;2022-12-20T04:31:33;96894.59;;;-2.58;100.00
20077;BME280;12348;42.710;23.378;2022-12-20T04:34:00;96897.59;;;-2.53;100.00
20077;BME280;12348;42.710;23.378;2022-12-20T04:36:27;96897.09;;;-2.40;100.00
20077;BME280;12348;42.710;23.378;2022-12-20T04:38:54;96901.88;;;-2.44;100.00
20077;BME280;12348;42.710;23.378;2022-12-20T04:41:22;96897.59;;;-2.36;100.00
20077;BME280;12348;42.710;23.378;2022-12-20T04:43:50;96886.38;;;-2.38;100.00
20077;BME280;12348;42.710;23.378;2022-12-20T04:46:18;96892.00;;;-2.41;100.00
20077;BME280;12348;42.710;23.378;2022-12-20T04:48:45;96888.84;;;-2.45;100.00
20077;BME280;12348;42.710;23.378;2022-12-20T04:51:12;96892.13;;;-2.51;100.00
20077;BME280;12348;42.710;23.378;2022-12-20T04:53:38;96892.31;;;-2.53;100.00
20077;BME280;12348;42.710;23.378;2022-12-20T04:56:17;96892.81;;;-2.57;100.00
20077;BME280;12348;42.710;23.378;2022-12-20T04:58:47;96893.81;;;-2.50;100.00
20077;BME280;12348;42.710;23.378;2022-12-20T05:01:14;96889.50;;;-2.51;100.00
20077;BME280;12348;42.710;23.378;2022-12-20T05:03:41;96884.22;;;-2.51;100.00
20077;BME280;12348;42.710;23.378;2022-12-20T05:06:08;96890.31;;;-2.59;100.00
20077;BME280;12348;42.710;23.378;2022-12-20T05:08:35;96889.00;;;-2.55;100.00
20077;BME280;12348;42.710;23.378;2022-12-20T05:11:03;96897.59;;;-2.61;100.00
20077;BME280;12348;42.710;23.378;2022-12-20T05:13:30;96887.84;;;-2.52;100.00
20077;BME280;12348;42.710;23.378;2022-12-20T05:15:58;96889.19;;;-2.56;100.00
20077;BME280;12348;42.710;23.378;2022-12-20T05:18:25;96890.81;;;-2.63;100.00
20077;BME280;12348;42.710;23.378;2022-12-20T05:20:55;96888.00;;;-2.62;100.00
20077;BME280;12348;42.710;23.378;2022-12-20T05:23:39;96885.88;;;-2.66;100.00
20077;BME280;12348;42.710;23.378;2022-12-20T05:26:24;96897.22;;;-2.66;100.00
20077;BME280;12348;42.710;23.378;2022-12-20T05:28:53;96889.13;;;-2.81;100.00
20077;BME280;12348;42.710;23.378;2022-12-20T05:31:21;96889.94;;;-2.88;100.00
20077;BME280;12348;42.710;23.378;2022-12-20T05:33:48;96898.16;;;-2.92;100.00
20077;BME280;12348;42.710;23.378;2022-12-20T05:36:15;96890.56;;;-3.03;100.00
20077;BME280;12348;42.710;23.378;2022-12-20T05:38:43;96882.66;;;-3.11;100.00
20077;BME280;12348;42.710;23.378;2022-12-20T05:41:09;96894.00;;;-3.10;100.00
20077;BME280;12348;42.710;23.378;2022-12-20T05:43:36;96890.53;;;-3.11;100.00
20077;BME280;12348;42.710;23.378;2022-12-20T05:46:04;96899.75;;;-3.15;100.00
20077;BME280;12348;42.710;23.378;2022-12-20T05:48:33;96893.19;;;-3.11;100.00
20077;BME280;12348;42.710;23.378;2022-12-20T05:50:59;96892.34;;;-3.11;100.00
20077;BME280;12348;42.710;23.378;2022-12-20T05:53:26;96896.50;;;-3.09;100.00
20077;BME280;12348;42.710;23.378;2022-12-20T05:55:53;96893.84;;;-3.09;100.00
20077;BME280;12348;42.710;23.378;2022-12-20T05:58:20;96890.22;;;-3.08;100.00
20077;BME280;12348;42.710;23.378;2022-12-20T06:00:47;96894.00;;;-3.10;100.00
20077;BME280;12348;42.710;23.378;2022-12-20T06:03:14;96904.03;;;-3.14;100.00
20077;BME280;12348;42.710;23.378;2022-12-20T06:05:42;96899.53;;;-2.87;100.00
20077;BME280;12348;42.710;23.378;2022-12-20T06:08:10;96902.53;;;-2.17;100.00
20077;BME280;12348;42.710;23.378;2022-12-20T06:10:40;96909.19;;;-1.57;100.00
20077;BME280;12348;42.710;23.378;2022-12-20T06:13:08;96904.19;;;-1.05;100.00
20077;BME280;12348;42.710;23.378;2022-12-20T06:15:35;96904.78;;;-0.55;100.00
20077;BME280;12348;42.710;23.378;2022-12-20T06:18:03;96902.28;;;-0.34;100.00
20077;BME280;12348;42.710;23.378;2022-12-20T06:20:30;96899.69;;;0.04;100.00
20077;BME280;12348;42.710;23.378;2022-12-20T06:22:58;96895.31;;;0.26;100.00
20077;BME280;12348;42.710;23.378;2022-12-20T06:25:25;96888.13;;;0.79;100.00
20077;BME280;12348;42.710;23.378;2022-12-20T06:27:52;96893.34;;;1.45;100.00
20077;BME280;12348;42.710;23.378;2022-12-20T06:30:19;96890.53;;;1.89;100.00
20077;BME280;12348;42.710;23.378;2022-12-20T06:32:46;96902.53;;;1.64;100.00
20077;BME280;12348;42.710;23.378;2022-12-20T06:35:14;96905.16;;;1.21;100.00
20077;BME280;12348;42.710;23.378;2022-12-20T06:37:41;96902.13;;;1.24;100.00
20077;BME280;12348;42.710;23.378;2022-12-20T06:40:13;96904.50;;;1.19;100.00
20077;BME280;12348;42.710;23.378;2022-12-20T06:42:39;96895.69;;;1.33;100.00
20077;BME280;12348;42.710;23.378;2022-12-20T06:45:07;96893.97;;;1.26;100.00
20077;BME280;12348;42.710;23.378;2022-12-20T06:47:34;96900.34;;;1.46;100.00
20077;BME280;12348;42.710;23.378;2022-12-20T06:50:01;96894.25;;;1.31;100.00
20077;BME280;12348;42.710;23.378;2022-12-20T06:52:28;96889.94;;;1.30;100.00
20077;BME280;12348;42.710;23.378;2022-12-20T06:54:55;96881.28;;;1.85;100.00
20077;BME280;12348;42.710;23.378;2022-12-20T06:57:23;96889.38;;;1.56;100.00
20077;BME280;12348;42.710;23.378;2022-12-20T06:59:49;96880.53;;;1.70;100.00
20077;BME280;12348;42.710;23.378;2022-12-20T07:02:16;96888.88;;;1.88;100.00
20077;BME280;12348;42.710;23.378;2022-12-20T07:04:43;96890.72;;;1.66;100.00
20077;BME280;12348;42.710;23.378;2022-12-20T07:07:11;96883.06;;;1.78;100.00
20077;BME280;12348;42.710;23.378;2022-12-20T07:09:37;96877.19;;;1.40;100.00
20077;BME280;12348;42.710;23.378;2022-12-20T07:12:06;96868.34;;;1.54;100.00
20077;BME280;12348;42.710;23.378;2022-12-20T07:14:34;96886.88;;;1.48;100.00
20077;BME280;12348;42.710;23.378;2022-12-20T07:17:01;96879.19;;;1.38;100.00
20077;BME280;12348;42.710;23.378;2022-12-20T07:19:27;96877.59;;;1.22;100.00
20077;BME280;12348;42.710;23.378;2022-12-20T07:21:54;96874.41;;;0.90;100.00
20077;BME280;12348;42.710;23.378;2022-12-20T07:24:21;96878.88;;;1.26;100.00
20077;BME280;12348;42.710;23.378;2022-12-20T07:26:48;96881.41;;;1.13;100.00
20077;BME280;12348;42.710;23.378;2022-12-20T07:29:14;96868.53;;;1.74;100.00
20077;BME280;12348;42.710;23.378;2022-12-20T07:31:43;96871.34;;;1.94;100.00
20077;BME280;12348;42.710;23.378;2022-12-20T07:34:09;96857.66;;;2.18;96.50
20077;BME280;12348;42.710;23.378;2022-12-20T07:36:36;96867.50;;;1.75;98.15
20077;BME280;12348;42.710;23.378;2022-12-20T07:39:03;96866.03;;;2.50;93.06
20077;BME280;12348;42.710;23.378;2022-12-20T07:41:30;96879.50;;;2.14;90.66
20077;BME280;12348;42.710;23.378;2022-12-20T07:43:57;96879.59;;;1.99;92.65
20077;BME280;12348;42.710;23.378;2022-12-20T07:46:24;96870.22;;;1.82;91.03
20077;BME280;12348;42.710;23.378;2022-12-20T07:48:52;96876.50;;;1.74;90.00
20077;BME280;12348;42.710;23.378;2022-12-20T07:51:22;96868.94;;;2.27;87.61
20077;BME280;12348;42.710;23.378;2022-12-20T07:53:53;96860.84;;;2.07;88.08
20077;BME280;12348;42.710;23.378;2022-12-20T07:56:21;96861.97;;;2.54;85.13
20077;BME280;12348;42.710;23.378;2022-12-20T07:58:50;96865.00;;;2.86;79.85
20077;BME280;12348;42.710;23.378;2022-12-20T08:01:19;96880.16;;;2.23;80.19
20077;BME280;12348;42.710;23.378;2022-12-20T08:03:48;96863.72;;;1.84;84.15
20077;BME280;12348;42.710;23.378;2022-12-20T08:06:18;96865.69;;;1.54;86.15
20077;BME280;12348;42.710;23.378;2022-12-20T08:08:47;96859.44;;;1.83;86.10
20077;BME280;12348;42.710;23.378;2022-12-20T08:11:15;96851.25;;;1.85;86.97
20077;BME280;12348;42.710;23.378;2022-12-20T08:13:43;96856.56;;;2.41;83.28
20077;BME280;12348;42.710;23.378;2022-12-20T08:16:11;96846.56;;;2.78;81.73
20077;BME280;12348;42.710;23.378;2022-12-20T08:18:38;96842.81;;;3.20;79.67
20077;BME280;12348;42.710;23.378;2022-12-20T08:21:04;96836.00;;;2.56;79.71
20077;BME280;12348;42.710;23.378;2022-12-20T08:23:32;96849.59;;;3.23;77.29
20077;BME280;12348;42.710;23.378;2022-12-20T08:25:59;96837.94;;;2.69;79.76
20077;BME280;12348;42.710;23.378;2022-12-20T08:28:26;96852.34;;;2.18;80.05
20077;BME280;12348;42.710;23.378;2022-12-20T08:30:59;96844.06;;;2.70;80.94
20077;BME280;12348;42.710;23.378;2022-12-20T08:33:26;96842.81;;;2.65;81.08
20077;BME280;12348;42.710;23.378;2022-12-20T08:35:56;96840.94;;;2.25;80.34
20077;BME280;12348;42.710;23.378;2022-12-20T08:38:25;96820.41;;;2.95;77.83
20077;BME280;12348;42.710;23.378;2022-12-20T08:40:53;96825.00;;;3.21;77.80
20077;BME280;12348;42.710;23.378;2022-12-20T08:43:20;96831.63;;;3.45;75.49
20077;BME280;12348;42.710;23.378;2022-12-20T08:45:51;96835.72;;;4.27;73.34
20077;BME280;12348;42.710;23.378;2022-12-20T08:48:18;96825.09;;;4.00;74.68
20077;BME280;12348;42.710;23.378;2022-12-20T08:50:45;96830.41;;;4.20;70.80
20077;BME280;12348;42.710;23.378;2022-12-20T08:53:12;96809.94;;;4.07;72.83
20077;BME280;12348;42.710;23.378;2022-12-20T08:55:39;96811.38;;;4.03;72.89
20077;BME280;12348;42.710;23.378;2022-12-20T08:58:07;96830.41;;;3.67;73.01
20077;BME280;12348;42.710;23.378;2022-12-20T09:00:34;96819.66;;;3.21;75.13
20077;BME280;12348;42.710;23.378;2022-12-20T09:03:01;96816.47;;;3.65;75.65
20077;BME280;12348;42.710;23.378;2022-12-20T09:05:28;96823.91;;;3.02;74.23
20077;BME280;12348;42.710;23.378;2022-12-20T09:07:55;96819.75;;;2.73;77.04
20077;BME280;12348;42.710;23.378;2022-12-20T09:10:22;96809.97;;;2.93;75.27
20077;BME280;12348;42.710;23.378;2022-12-20T09:12:48;96813.94;;;3.24;74.38
20077;BME280;12348;42.710;23.378;2022-12-20T09:15:16;96803.97;;;3.52;74.86
20077;BME280;12348;42.710;23.378;2022-12-20T09:17:43;96801.75;;;3.62;73.08
20077;BME280;12348;42.710;23.378;2022-12-20T09:20:11;96796.78;;;4.19;72.48
20077;BME280;12348;42.710;23.378;2022-12-20T09:22:38;96792.72;;;3.83;71.60
20077;BME280;12348;42.710;23.378;2022-12-20T09:25:06;96774.91;;;2.76;74.71
20077;BME280;12348;42.710;23.378;2022-12-20T09:27:33;96788.22;;;2.70;77.34
20077;BME280;12348;42.710;23.378;2022-12-20T09:30:00;96801.00;;;2.53;76.64
20077;BME280;12348;42.710;23.378;2022-12-20T09:32:28;96779.91;;;2.92;76.24
20077;BME280;12348;42.710;23.378;2022-12-20T09:34:55;96769.72;;;3.23;73.69
20077;BME280;12348;42.710;23.378;2022-12-20T09:37:21;96769.72;;;3.36;73.38
20077;BME280;12348;42.710;23.378;2022-12-20T09:39:48;96783.16;;;2.95;75.11
20077;BME280;12348;42.710;23.378;2022-12-20T09:42:24;96783.84;;;3.16;73.40
20077;BME280;12348;42.710;23.378;2022-12-20T09:45:00;96746.59;;;3.43;72.83
20077;BME280;12348;42.710;23.378;2022-12-20T09:47:29;96756.34;;;4.35;70.70
20077;BME280;12348;42.710;23.378;2022-12-20T09:49:59;96758.63;;;4.83;67.99
20077;BME280;12348;42.710;23.378;2022-12-20T09:52:40;96760.97;;;4.60;63.96
20077;BME280;12348;42.710;23.378;2022-12-20T09:55:18;96754.94;;;5.48;63.10
20077;BME280;12348;42.710;23.378;2022-12-20T09:58:01;96739.78;;;5.92;63.10
20077;BME280;12348;42.710;23.378;2022-12-20T10:00:34;96731.94;;;5.47;62.61
20077;BME280;12348;42.710;23.378;2022-12-20T10:03:03;96732.97;;;5.46;61.81
20077;BME280;12348;42.710;23.378;2022-12-20T10:05:34;96733.53;;;5.79;60.69
20077;BME280;12348;42.710;23.378;2022-12-20T10:08:07;96724.03;;;5.58;62.61
20077;BME280;12348;42.710;23.378;2022-12-20T10:10:51;96712.38;;;4.51;61.56
20077;BME280;12348;42.710;23.378;2022-12-20T10:13:33;96713.63;;;4.49;62.93
20077;BME280;12348;42.710;23.378;2022-12-20T10:16:12;96699.22;;;4.95;63.08
20077;BME280;12348;42.710;23.378;2022-12-20T10:18:53;96705.56;;;4.55;62.95
20077;BME280;12348;42.710;23.378;2022-12-20T10:21:31;96670.63;;;4.70;64.35
20077;BME280;12348;42.710;23.378;2022-12-20T10:24:03;96673.88;;;4.79;65.51
20077;BME280;12348;42.710;23.378;2022-12-20T10:26:31;96670.06;;;4.61;62.11
20077;BME280;12348;42.710;23.378;2022-12-20T10:29:00;96671.88;;;3.51;66.39
20077;BME280;12348;42.710;23.378;2022-12-20T10:31:26;96662.78;;;3.85;68.57
20077;BME280;12348;42.710;23.378;2022-12-20T10:33:55;96654.63;;;3.67;67.52
20077;BME280;12348;42.710;23.378;2022-12-20T10:36:24;96650.34;;;3.46;67.51
20077;BME280;12348;42.710;23.378;2022-12-20T10:38:53;96644.41;;;3.24;69.86
20077;BME280;12348;42.710;23.378;2022-12-20T10:41:21;96649.53;;;4.17;68.17
20077;BME280;12348;42.710;23.378;2022-12-20T10:43:52;96630.06;;;4.17;67.74
20077;BME280;12348;42.710;23.378;2022-12-20T10:46:22;96625.16;;;3.49;69.08
20077;BME280;12348;42.710;23.378;2022-12-20T10:48:49;96635.59;;;3.50;68.55
20077;BME280;12348;42.710;23.378;2022-12-20T10:51:19;96613.47;;;3.43;68.96
20077;BME280;12348;42.710;23.378;2022-12-20T10:53:52;96619.25;;;4.11;68.71
20077;BME280;12348;42.710;23.378;2022-12-20T10:56:21;96600.50;;;3.80;68.63
20077;BME280;12348;42.710;23.378;2022-12-20T10:58:54;96614.28;;;3.63;68.33
20077;BME280;12348;42.710;23.378;2022-12-20T11:01:26;96608.97;;;3.50;67.92
20077;BME280;12348;42.710;23.378;2022-12-20T11:04:00;96596.28;;;3.39;68.03
20077;BME280;12348;42.710;23.378;2022-12-20T11:06:41;96594.03;;;3.43;68.10
20077;BME280;12348;42.710;23.378;2022-12-20T11:09:27;96589.97;;;3.98;67.52
20077;BME280;12348;42.710;23.378;2022-12-20T11:12:02;96585.78;;;3.64;67.88
20077;BME280;12348;42.710;23.378;2022-12-20T11:14:31;96592.34;;;3.68;69.17
20077;BME280;12348;42.710;23.378;2022-12-20T11:17:01;96602.84;;;3.43;69.25
20077;BME280;12348;42.710;23.378;2022-12-20T11:22:30;96586.84;;;3.56;69.71
20077;BME280;12348;42.710;23.378;2022-12-20T11:25:07;96575.59;;;3.48;71.29
20077;BME280;12348;42.710;23.378;2022-12-20T11:27:50;96571.13;;;3.35;71.65
20077;BME280;12348;42.710;23.378;2022-12-20T11:30:32;96562.41;;;3.73;71.57
20077;BME280;12348;42.710;23.378;2022-12-20T11:33:25;96569.94;;;3.82;70.87
20077;BME280;12348;42.710;23.378;2022-12-20T11:36:01;96567.94;;;4.16;68.12
20077;BME280;12348;42.710;23.378;2022-12-20T11:38:39;96564.94;;;4.69;66.51
20077;BME280;12348;42.710;23.378;2022-12-20T11:41:17;96554.59;;;4.54;64.69
20077;BME280;12348;42.710;23.378;2022-12-20T11:44:00;96544.56;;;4.50;62.94
20077;BME280;12348;42.710;23.378;2022-12-20T11:46:40;96553.41;;;5.00;62.30
20077;BME280;12348;42.710;23.378;2022-12-20T11:49:28;96546.38;;;5.49;60.65
20077;BME280;12348;42.710;23.378;2022-12-20T11:52:04;96534.09;;;5.97;58.48
20077;BME280;12348;42.710;23.378;2022-12-20T11:54:39;96536.00;;;6.08;55.81
20077;BME280;12348;42.710;23.378;2022-12-20T11:57:14;96542.28;;;5.65;55.23
20077;BME280;12348;42.710;23.378;2022-12-20T11:59:47;96540.63;;;5.82;55.33
20077;BME280;12348;42.710;23.378;2022-12-20T12:02:22;96532.69;;;6.13;56.31
20077;BME280;12348;42.710;23.378;2022-12-20T12:04:55;96535.00;;;4.92;56.10
20077;BME280;12348;42.710;23.378;2022-12-20T12:07:28;96536.75;;;4.80;58.39
20077;BME280;12348;42.710;23.378;2022-12-20T12:10:01;96534.94;;;4.49;60.18
20077;BME280;12348;42.710;23.378;2022-12-20T12:12:32;96519.94;;;4.23;60.44
20077;BME280;12348;42.710;23.378;2022-12-20T12:15:02;96532.97;;;4.37;61.00
20077;BME280;12348;42.710;23.378;2022-12-20T12:17:36;96526.38;;;4.40;59.24
20077;BME280;12348;42.710;23.378;2022-12-20T12:20:19;96517.34;;;4.41;59.00
20077;BME280;12348;42.710;23.378;2022-12-20T12:22:50;96523.72;;;4.65;59.61
20077;BME280;12348;42.710;23.378;2022-12-20T12:25:20;96516.72;;;5.14;57.46
20077;BME280;12348;42.710;23.378;2022-12-20T12:27:47;96509.41;;;4.84;57.93
20077;BME280;12348;42.710;23.378;2022-12-20T12:30:15;96513.00;;;5.15;57.95
20077;BME280;12348;42.710;23.378;2022-12-20T12:32:46;96511.06;;;5.04;57.80
20077;BME280;12348;42.710;23.378;2022-12-20T12:35:44;96507.00;;;5.01;58.92
20077;BME280;12348;42.710;23.378;2022-12-20T12:38:35;96518.28;;;4.53;58.95
20077;BME280;12348;42.710;23.378;2022-12-20T12:41:32;96509.69;;;4.76;58.29
20077;BME280;12348;42.710;23.378;2022-12-20T12:44:27;96515.63;;;4.53;60.03
20077;BME280;12348;42.710;23.378;2022-12-20T12:47:00;96510.63;;;4.64;59.21
20077;BME280;12348;42.710;23.378;2022-12-20T12:49:29;96509.97;;;5.11;59.57
20077;BME280;12348;42.710;23.378;2022-12-20T12:51:58;96511.31;;;5.21;59.05
20077;BME280;12348;42.710;23.378;2022-12-20T12:54:28;96507.53;;;5.83;57.02
20077;BME280;12348;42.710;23.378;2022-12-20T12:57:01;96506.19;;;5.38;57.59
20077;BME280;12348;42.710;23.378;2022-12-20T12:59:49;96495.13;;;5.52;55.11
20077;BME280;12348;42.710;23.378;2022-12-20T13:02:49;96503.00;;;5.66;55.47
20077;BME280;12348;42.710;23.378;2022-12-20T13:05:31;96493.81;;;5.43;56.49
20077;BME280;12348;42.710;23.378;2022-12-20T13:07:58;96502.13;;;5.35;55.58
20077;BME280;12348;42.710;23.378;2022-12-20T13:10:55;96489.91;;;5.27;55.74
20077;BME280;12348;42.710;23.378;2022-12-20T13:13:24;96495.41;;;4.89;56.99